createdAt,value
2023-05-12T00:02:12.072Z,1.30
2023-05-12T00:04:44.086Z,1.30
2023-05-12T00:07:13.781Z,1.30
2023-05-12T00:09:43.344Z,1.20
2023-05-12T00:12:13.672Z,1.27
2023-05-12T00:14:43.289Z,1.30
2023-05-12T00:17:14.319Z,1.20
2023-05-12T00:19:45.660Z,1.50
2023-05-12T00:22:17.431Z,1.43
2023-05-12T00:24:47.343Z,1.40
2023-05-12T00:27:17.050Z,1.50
2023-05-12T00:29:46.953Z,1.30
2023-05-12T00:32:16.765Z,1.50
2023-05-12T00:34:47.913Z,1.50
2023-05-12T00:37:17.733Z,1.43
2023-05-12T00:39:47.546Z,1.50
2023-05-12T00:42:17.249Z,1.60
2023-05-12T00:44:47.688Z,1.60
2023-05-12T00:47:18.307Z,1.40
2023-05-12T00:49:49.672Z,1.30
2023-05-12T00:52:19.474Z,1.30
2023-05-12T00:54:50.501Z,1.50
2023-05-12T00:57:21.144Z,1.40
2023-05-12T00:59:51.064Z,1.50
2023-05-12T01:02:20.925Z,1.33
2023-05-12T01:04:52.932Z,1.47
2023-05-12T01:07:24.588Z,1.30
2023-05-12T01:09:57.468Z,1.50
2023-05-12T01:12:29.148Z,1.47
2023-05-12T01:14:59.763Z,1.50
2023-05-12T01:17:33.994Z,1.50
2023-05-12T01:20:07.876Z,1.70
2023-05-12T01:22:39.344Z,1.77
2023-05-12T01:25:13.543Z,1.50
2023-05-12T01:27:46.945Z,1.37
2023-05-12T01:30:20.040Z,1.60
2023-05-12T01:32:50.371Z,1.50
2023-05-12T01:35:21.049Z,1.67
2023-05-12T01:37:58.674Z,1.87
2023-05-12T01:40:28.496Z,1.80
2023-05-12T01:43:01.173Z,1.83
2023-05-12T01:45:34.772Z,2.43
2023-05-12T01:48:04.338Z,1.70
2023-05-12T01:50:34.389Z,1.90
2023-05-12T01:53:05.133Z,1.60
2023-05-12T01:55:35.439Z,1.77
2023-05-12T01:58:07.100Z,1.43
2023-05-12T02:00:36.915Z,1.70
2023-05-12T02:03:09.066Z,1.50
2023-05-12T02:05:39.115Z,1.60
2023-05-12T02:08:09.008Z,1.60
2023-05-12T02:10:39.016Z,1.57
2023-05-12T02:13:10.200Z,1.50
2023-05-12T02:15:39.774Z,1.60
2023-05-12T02:18:10.165Z,1.70
2023-05-12T02:20:41.854Z,1.70
2023-05-12T02:23:12.174Z,1.70
2023-05-12T02:25:42.601Z,1.67
2023-05-12T02:28:13.962Z,1.50
2023-05-12T02:30:49.002Z,1.80
2023-05-12T02:33:21.359Z,1.73
2023-05-12T02:35:51.182Z,1.80
2023-05-12T02:38:20.879Z,2.10
2023-05-12T02:40:51.210Z,2.30
2023-05-12T02:43:22.767Z,1.97
2023-05-12T02:45:52.718Z,2.30
2023-05-12T02:48:23.301Z,2.13
2023-05-12T02:50:52.805Z,2.00
2023-05-12T02:53:22.620Z,2.53
2023-05-12T02:55:52.531Z,2.10
2023-05-12T02:58:24.190Z,2.30
2023-05-12T03:01:03.186Z,2.60
2023-05-12T03:03:37.395Z,2.50
2023-05-12T03:06:08.075Z,2.50
2023-05-12T03:08:37.875Z,2.80
2023-05-12T03:11:07.598Z,2.70
2023-05-12T03:13:38.734Z,2.60
2023-05-12T03:16:09.574Z,3.00
2023-05-12T03:18:39.317Z,2.87
2023-05-12T03:21:08.797Z,3.20
2023-05-12T03:23:39.100Z,2.70
2023-05-12T03:26:08.720Z,3.10
2023-05-12T03:28:39.951Z,3.10
2023-05-12T03:31:09.486Z,2.90
2023-05-12T03:33:38.972Z,2.97
2023-05-12T03:36:09.392Z,2.80
2023-05-12T03:38:38.901Z,2.50
2023-05-12T03:41:09.226Z,2.20
2023-05-12T03:43:41.010Z,2.20
2023-05-12T03:46:11.515Z,2.10
2023-05-12T03:48:42.236Z,2.13
2023-05-12T03:51:11.942Z,2.20
2023-05-12T03:53:45.642Z,1.70
2023-05-12T03:56:17.419Z,1.60
2023-05-12T03:58:48.962Z,1.70
2023-05-12T04:01:19.297Z,1.60
2023-05-12T04:03:49.311Z,1.60
2023-05-12T04:06:19.022Z,1.63
2023-05-12T04:08:48.730Z,1.73
2023-05-12T04:11:18.528Z,1.70
2023-05-12T04:13:49.910Z,1.70
2023-05-12T04:16:19.617Z,1.50
2023-05-12T04:18:49.955Z,1.70
2023-05-12T04:21:20.038Z,1.60
2023-05-12T04:23:52.814Z,1.77
2023-05-12T04:26:24.568Z,1.40
2023-05-12T04:28:55.913Z,1.60
2023-05-12T04:31:25.862Z,1.70
2023-05-12T04:34:05.068Z,1.77
2023-05-12T04:36:37.235Z,1.70
2023-05-12T04:39:08.065Z,1.70
2023-05-12T04:41:38.082Z,1.90
2023-05-12T04:44:10.775Z,1.70
2023-05-12T04:46:40.670Z,1.90
2023-05-12T04:49:10.805Z,1.70
2023-05-12T04:51:42.766Z,1.40
2023-05-12T04:54:13.394Z,1.53
2023-05-12T04:56:43.415Z,1.60
2023-05-12T04:59:16.302Z,1.90
2023-05-12T05:01:48.012Z,1.80
2023-05-12T05:04:19.289Z,1.60
2023-05-12T05:06:49.418Z,1.80
2023-05-12T05:09:19.640Z,2.03
2023-05-12T05:11:49.543Z,2.17
2023-05-12T05:14:21.426Z,2.23
2023-05-12T05:16:51.536Z,1.93
2023-05-12T05:19:31.835Z,1.70
2023-05-12T05:22:10.703Z,2.10
2023-05-12T05:24:41.756Z,1.80
2023-05-12T05:27:13.194Z,1.80
2023-05-12T05:29:44.542Z,1.80
2023-05-12T05:32:14.511Z,1.60
2023-05-12T05:34:44.575Z,2.30
2023-05-12T05:37:14.287Z,2.00
2023-05-12T05:39:43.976Z,2.00
2023-05-12T05:42:14.425Z,2.10
2023-05-12T05:44:45.789Z,2.23
2023-05-12T05:47:15.988Z,2.30
2023-05-12T05:49:46.111Z,2.77
2023-05-12T05:52:17.076Z,2.73
2023-05-12T05:54:46.763Z,2.20
2023-05-12T05:57:18.120Z,2.30
2023-05-12T05:59:50.064Z,2.57
2023-05-12T06:02:23.515Z,2.63
2023-05-12T06:04:54.104Z,2.80
2023-05-12T06:07:23.804Z,2.50
2023-05-12T06:09:55.044Z,2.30
2023-05-12T06:12:24.548Z,2.50
2023-05-12T06:14:55.802Z,2.40
2023-05-12T06:17:25.514Z,2.40
2023-05-12T06:19:55.628Z,2.67
2023-05-12T06:22:25.438Z,2.30
2023-05-12T06:24:54.937Z,2.00
2023-05-12T06:27:24.552Z,2.27
2023-05-12T06:29:55.814Z,3.10
2023-05-12T06:32:25.422Z,2.17
2023-05-12T06:34:55.322Z,2.53
2023-05-12T06:37:26.559Z,2.60
2023-05-12T06:39:56.432Z,2.70
2023-05-12T06:42:27.524Z,2.73
2023-05-12T06:45:01.026Z,2.80
2023-05-12T06:47:30.545Z,3.40
2023-05-12T06:50:00.206Z,2.73
2023-05-12T06:52:29.845Z,3.30
2023-05-12T06:54:59.343Z,2.87
2023-05-12T06:57:28.844Z,2.73
2023-05-12T07:00:01.027Z,3.07
2023-05-12T07:02:31.369Z,3.10
2023-05-12T07:05:01.165Z,2.60
2023-05-12T07:07:30.863Z,2.43
2023-05-12T07:10:00.572Z,2.60
2023-05-12T07:12:30.281Z,2.70
2023-05-12T07:15:01.433Z,3.27
2023-05-12T07:17:31.268Z,3.23
2023-05-12T07:20:01.142Z,2.80
2023-05-12T07:22:32.833Z,2.90
2023-05-12T07:25:03.195Z,3.50
2023-05-12T07:27:32.841Z,3.43
2023-05-12T07:30:04.492Z,3.10
2023-05-12T07:32:34.185Z,3.20
2023-05-12T07:35:04.048Z,2.80
2023-05-12T07:37:33.722Z,2.60
2023-05-12T07:40:03.535Z,2.90
2023-05-12T07:42:33.453Z,3.10
2023-05-12T07:45:04.593Z,3.30
2023-05-12T07:47:34.654Z,3.27
2023-05-12T07:50:04.222Z,3.33
2023-05-12T07:52:33.612Z,3.03
2023-05-12T07:55:03.856Z,2.77
2023-05-12T07:57:33.458Z,2.60
2023-05-12T08:00:05.209Z,2.47
2023-05-12T08:02:43.012Z,2.97
2023-05-12T08:05:12.919Z,2.90
2023-05-12T08:07:44.082Z,2.90
2023-05-12T08:10:14.609Z,3.00
2023-05-12T08:12:44.899Z,3.57
2023-05-12T08:15:17.311Z,3.00
2023-05-12T08:17:46.804Z,3.20
2023-05-12T08:20:17.628Z,3.50
2023-05-12T08:22:48.048Z,3.43
2023-05-12T08:25:17.889Z,3.47
2023-05-12T08:27:47.582Z,3.33
2023-05-12T08:30:19.433Z,3.37
2023-05-12T08:32:49.086Z,3.70
2023-05-12T08:35:19.028Z,4.10
2023-05-12T08:37:49.067Z,3.60
2023-05-12T08:40:23.622Z,3.60
2023-05-12T08:43:00.448Z,3.63
2023-05-12T08:45:34.474Z,3.73
2023-05-12T08:48:06.559Z,4.23
2023-05-12T08:50:38.302Z,4.10
2023-05-12T08:53:12.129Z,4.23
2023-05-12T08:55:50.164Z,3.90
2023-05-12T08:58:40.290Z,4.00
2023-05-12T09:01:15.226Z,3.87
2023-05-12T09:03:45.752Z,3.20
2023-05-12T09:06:16.290Z,3.53
2023-05-12T09:08:46.815Z,3.43
2023-05-12T09:11:19.095Z,3.57
2023-05-12T09:13:54.851Z,3.30
2023-05-12T09:16:29.073Z,3.60
2023-05-12T09:19:00.295Z,3.37
2023-05-12T09:21:30.620Z,3.23
2023-05-12T09:24:04.027Z,3.10
2023-05-12T09:26:34.959Z,3.23
2023-05-12T09:29:08.706Z,3.40
2023-05-12T09:31:40.356Z,3.17
2023-05-12T09:34:11.469Z,3.10
2023-05-12T09:36:40.956Z,3.07
2023-05-12T09:39:13.309Z,3.00
2023-05-12T09:41:44.595Z,2.97
2023-05-12T09:44:18.593Z,2.80
2023-05-12T09:46:49.980Z,3.13
2023-05-12T09:49:26.199Z,3.00
2023-05-12T09:51:57.761Z,2.80
2023-05-12T09:54:28.708Z,3.47
2023-05-12T09:57:00.758Z,3.40
2023-05-12T09:59:33.958Z,3.50
2023-05-12T10:02:07.754Z,4.37
2023-05-12T10:04:46.733Z,3.30
2023-05-12T10:07:18.443Z,3.27
2023-05-12T10:09:49.183Z,2.73
2023-05-12T10:12:19.485Z,2.97
2023-05-12T10:14:52.678Z,2.67
2023-05-12T10:17:24.776Z,2.67
2023-05-12T10:19:56.191Z,2.40
2023-05-12T10:22:27.137Z,2.23
2023-05-12T10:24:57.670Z,2.20
2023-05-12T10:27:28.087Z,3.20
2023-05-12T10:29:58.212Z,3.70
2023-05-12T10:32:29.501Z,3.90
2023-05-12T10:35:10.223Z,4.23
2023-05-12T10:37:39.980Z,4.20
2023-05-12T10:40:11.807Z,4.07
2023-05-12T10:42:42.928Z,5.17
2023-05-12T10:45:22.720Z,4.57
2023-05-12T10:47:54.358Z,4.43
2023-05-12T10:50:31.845Z,4.53
2023-05-12T10:53:01.324Z,4.90
2023-05-12T10:55:35.894Z,4.83
2023-05-12T10:58:12.718Z,5.27
2023-05-12T11:00:47.740Z,5.13
2023-05-12T11:03:20.641Z,4.93
2023-05-12T11:06:01.227Z,5.13
2023-05-12T11:08:32.346Z,4.67
2023-05-12T11:11:04.257Z,4.33
2023-05-12T11:13:34.745Z,4.28
2023-05-12T11:16:05.160Z,4.73
2023-05-12T11:18:37.408Z,4.75
2023-05-12T11:21:14.624Z,4.37
2023-05-12T11:23:44.346Z,4.40
2023-05-12T11:26:22.229Z,4.57
2023-05-12T11:28:52.060Z,5.07
2023-05-12T11:31:22.357Z,4.60
2023-05-12T11:34:11.849Z,4.63
2023-05-12T11:36:47.084Z,4.35
2023-05-12T11:39:18.640Z,4.10
2023-05-12T11:41:48.829Z,4.50
2023-05-12T11:44:21.562Z,4.45
2023-05-12T11:47:01.241Z,4.30
2023-05-12T11:49:34.991Z,4.43
2023-05-12T11:52:05.403Z,4.63
2023-05-12T11:54:35.024Z,4.47
2023-05-12T11:57:05.136Z,4.70
2023-05-12T11:59:37.933Z,5.30
2023-05-12T12:02:07.652Z,4.85
2023-05-12T12:04:41.167Z,3.85
2023-05-12T12:07:11.769Z,4.70
2023-05-12T12:09:43.529Z,4.45
2023-05-12T12:12:13.547Z,4.10
2023-05-12T12:14:43.760Z,4.13
2023-05-12T12:17:13.671Z,4.10
2023-05-12T12:19:45.041Z,4.10
2023-05-12T12:22:14.832Z,4.15
2023-05-12T12:24:44.327Z,3.92
2023-05-12T12:27:14.052Z,4.25
2023-05-12T12:29:43.863Z,4.47
2023-05-12T12:32:13.462Z,4.13
2023-05-12T12:34:45.529Z,4.80
2023-05-12T12:37:15.129Z,4.30
2023-05-12T12:39:44.755Z,4.57
2023-05-12T12:42:15.837Z,4.60
2023-05-12T12:44:48.356Z,4.80
2023-05-12T12:47:17.748Z,4.27
2023-05-12T12:49:49.207Z,4.27
2023-05-12T12:52:19.448Z,4.30
2023-05-12T12:54:48.936Z,4.30
2023-05-12T12:57:19.768Z,4.60
2023-05-12T12:59:49.688Z,4.70
2023-05-12T13:02:20.716Z,5.47
2023-05-12T13:04:51.985Z,4.50
2023-05-12T13:07:22.195Z,5.43
2023-05-12T13:09:51.904Z,5.00
2023-05-12T13:12:22.850Z,5.00
2023-05-12T13:14:52.232Z,4.80
2023-05-12T13:17:22.158Z,4.33
2023-05-12T13:19:54.425Z,4.50
2023-05-12T13:22:24.155Z,4.73
2023-05-12T13:24:54.564Z,4.70
2023-05-12T13:27:24.481Z,4.33
2023-05-12T13:29:54.093Z,4.30
2023-05-12T13:32:23.607Z,4.77
2023-05-12T13:34:54.838Z,3.70
2023-05-12T13:37:24.547Z,3.47
2023-05-12T13:39:53.939Z,3.28
2023-05-12T13:42:23.449Z,3.93
2023-05-12T13:44:53.155Z,3.60
2023-05-12T13:47:22.779Z,3.67
2023-05-12T13:49:54.021Z,3.47
2023-05-12T13:52:23.614Z,3.42
2023-05-12T13:54:53.230Z,3.00
2023-05-12T13:57:22.829Z,3.00
2023-05-12T13:59:52.349Z,2.80
2023-05-12T14:02:22.496Z,2.90
2023-05-12T14:04:52.412Z,2.80
2023-05-12T14:07:23.505Z,2.80
2023-05-12T14:09:53.309Z,2.60
2023-05-12T14:12:25.798Z,2.90
2023-05-12T14:15:04.578Z,3.33
2023-05-12T14:17:41.915Z,3.10
2023-05-12T14:20:13.156Z,3.50
2023-05-12T14:22:44.097Z,3.28
2023-05-12T14:25:17.487Z,3.60
2023-05-12T14:27:47.618Z,3.47
2023-05-12T14:30:18.374Z,3.08
2023-05-12T14:32:47.962Z,2.97
2023-05-12T14:35:17.965Z,3.17
2023-05-12T14:37:49.319Z,3.70
2023-05-12T14:40:19.118Z,3.90
2023-05-12T14:42:50.733Z,3.60
2023-05-12T14:45:20.710Z,3.58
2023-05-12T14:47:50.480Z,3.95
2023-05-12T14:50:20.847Z,3.90
2023-05-12T14:52:52.375Z,4.25
2023-05-12T14:55:22.301Z,3.97
2023-05-12T14:57:52.733Z,4.43
2023-05-12T15:00:22.958Z,4.72
2023-05-12T15:02:52.878Z,5.10
2023-05-12T15:05:27.539Z,4.88
2023-05-12T15:08:08.353Z,5.00
2023-05-12T15:10:37.970Z,4.55
2023-05-12T15:13:07.880Z,4.47
2023-05-12T15:15:39.429Z,4.28
2023-05-12T15:18:09.294Z,3.38
2023-05-12T15:20:40.597Z,4.00
2023-05-12T15:23:11.631Z,3.40
2023-05-12T15:25:41.973Z,4.00
2023-05-12T15:28:11.700Z,3.60
2023-05-12T15:30:41.582Z,3.80
2023-05-12T15:33:11.251Z,3.50
2023-05-12T15:35:42.327Z,3.60
2023-05-12T15:38:14.179Z,4.00
2023-05-12T15:40:44.139Z,3.80
2023-05-12T15:43:13.812Z,4.05
2023-05-12T15:45:43.630Z,3.50
2023-05-12T15:48:13.506Z,3.90
2023-05-12T15:50:44.058Z,4.10
2023-05-12T15:53:15.109Z,4.25
2023-05-12T15:55:44.925Z,4.18
2023-05-12T15:58:15.140Z,4.38
2023-05-12T16:00:44.766Z,4.20
2023-05-12T16:03:14.505Z,4.22
2023-05-12T16:05:44.181Z,3.97
2023-05-12T16:08:15.619Z,4.35
2023-05-12T16:10:45.733Z,5.90
2023-05-12T16:13:15.466Z,5.05
2023-05-12T16:15:45.861Z,6.40
2023-05-12T16:18:15.509Z,4.57
2023-05-12T16:20:47.840Z,4.18
2023-05-12T16:23:18.885Z,4.53
2023-05-12T16:25:48.599Z,4.85
2023-05-12T16:28:18.724Z,5.10
2023-05-12T16:30:48.323Z,5.03
2023-05-12T16:33:17.840Z,4.70
2023-05-12T16:35:47.745Z,4.85
2023-05-12T16:38:18.774Z,4.93
2023-05-12T16:40:48.694Z,5.22
2023-05-12T16:43:18.310Z,4.93
2023-05-12T16:45:48.650Z,4.97
2023-05-12T16:48:19.566Z,5.15
2023-05-12T16:50:49.279Z,5.25
2023-05-12T16:53:20.630Z,4.70
2023-05-12T16:55:50.942Z,5.40
2023-05-12T16:58:20.659Z,5.55
2023-05-12T17:00:50.468Z,5.82
2023-05-12T17:03:20.776Z,6.30
2023-05-12T17:05:52.546Z,6.47
2023-05-12T17:08:25.053Z,6.53
2023-05-12T17:10:54.633Z,6.60
2023-05-12T17:13:24.125Z,6.63
2023-05-12T17:15:53.875Z,6.35
2023-05-12T17:18:25.049Z,7.05
2023-05-12T17:20:54.680Z,7.55
2023-05-12T17:23:25.947Z,7.80
2023-05-12T17:25:55.668Z,8.25
2023-05-12T17:28:25.477Z,9.30
2023-05-12T17:30:55.788Z,9.82
2023-05-12T17:33:25.706Z,6.05
2023-05-12T17:36:10.872Z,4.70
2023-05-12T17:38:43.973Z,4.20
2023-05-12T17:41:14.087Z,4.35
2023-05-12T17:43:43.679Z,4.30
2023-05-12T17:46:13.409Z,3.95
2023-05-12T17:48:43.319Z,4.10
2023-05-12T17:51:12.922Z,4.53
2023-05-12T17:53:43.951Z,4.60
2023-05-12T17:56:13.370Z,4.30
2023-05-12T17:58:43.488Z,3.60
2023-05-12T18:01:13.359Z,4.60
2023-05-12T18:03:43.177Z,4.80
2023-05-12T18:06:13.327Z,4.37
2023-05-12T18:08:44.789Z,3.83
2023-05-12T18:11:15.100Z,4.40
2023-05-12T18:13:44.809Z,4.20
2023-05-12T18:16:27.533Z,4.20
2023-05-12T18:18:58.903Z,4.53
2023-05-12T18:21:28.601Z,5.03
2023-05-12T18:23:59.734Z,4.23
2023-05-12T18:26:30.462Z,3.40
2023-05-12T18:29:00.588Z,4.00
2023-05-12T18:31:30.374Z,3.67
2023-05-12T18:34:00.123Z,4.23
2023-05-12T18:36:29.697Z,3.90
2023-05-12T18:39:01.166Z,3.80
2023-05-12T18:41:31.068Z,4.27
2023-05-12T18:44:00.876Z,4.07
2023-05-12T18:46:32.361Z,4.10
2023-05-12T18:49:02.144Z,3.95
2023-05-12T18:51:32.665Z,3.75
2023-05-12T18:54:03.706Z,4.20
2023-05-12T18:56:33.416Z,4.18
2023-05-12T18:59:03.132Z,4.87
2023-05-12T19:01:33.280Z,5.60
2023-05-12T19:04:02.957Z,5.50
2023-05-12T19:06:32.976Z,6.37
2023-05-12T19:09:05.349Z,5.70
2023-05-12T19:11:34.847Z,5.68
2023-05-12T19:14:04.350Z,5.50
2023-05-12T19:16:35.083Z,4.90
2023-05-12T19:19:05.009Z,5.67
2023-05-12T19:21:34.825Z,5.15
2023-05-12T19:24:06.568Z,5.23
2023-05-12T19:26:38.044Z,5.83
2023-05-12T19:29:07.656Z,5.07
2023-05-12T19:31:37.846Z,6.47
2023-05-12T19:34:07.556Z,5.50
2023-05-12T19:36:37.471Z,5.33
2023-05-12T19:39:08.730Z,4.93
2023-05-12T19:41:39.759Z,4.60
2023-05-12T19:44:09.778Z,4.27
2023-05-12T19:46:39.291Z,4.10
2023-05-12T19:49:09.294Z,4.50
2023-05-12T19:51:38.906Z,3.87
2023-05-12T19:54:10.659Z,3.78
2023-05-12T19:56:41.811Z,3.30
2023-05-12T19:59:11.526Z,3.60
2023-05-12T20:01:41.998Z,3.40
2023-05-12T20:04:11.862Z,3.20
2023-05-12T20:06:42.491Z,3.27
2023-05-12T20:09:13.845Z,3.20
2023-05-12T20:11:43.590Z,2.80
2023-05-12T20:14:13.160Z,2.70
2023-05-12T20:16:43.200Z,2.70
2023-05-12T20:19:12.862Z,2.40
2023-05-12T20:21:43.127Z,2.40
2023-05-12T20:24:14.351Z,2.40
2023-05-12T20:26:43.965Z,1.97
2023-05-12T20:29:21.136Z,1.90
2023-05-12T20:31:51.376Z,1.70
2023-05-12T20:34:21.578Z,1.97
2023-05-12T20:36:51.606Z,2.37
2023-05-12T20:39:23.053Z,2.13
2023-05-12T20:41:52.758Z,2.50
2023-05-12T20:44:22.771Z,2.23
2023-05-12T20:46:52.487Z,2.20
2023-05-12T20:49:22.514Z,2.47
2023-05-12T20:51:52.206Z,2.50
2023-05-12T20:54:23.149Z,2.50
2023-05-12T20:56:52.948Z,2.10
2023-05-12T20:59:25.119Z,2.10
2023-05-12T21:01:54.869Z,2.20
2023-05-12T21:04:24.551Z,2.30
2023-05-12T21:06:54.549Z,2.40
2023-05-12T21:09:25.814Z,2.20
2023-05-12T21:11:55.410Z,2.00
2023-05-12T21:14:26.669Z,2.03
2023-05-12T21:16:56.597Z,2.00
2023-05-12T21:19:26.275Z,1.97
2023-05-12T21:21:55.908Z,2.00
2023-05-12T21:24:27.146Z,2.00
2023-05-12T21:26:58.297Z,1.90
2023-05-12T21:29:27.878Z,2.27
2023-05-12T21:31:57.533Z,1.90
2023-05-12T21:34:27.404Z,2.07
2023-05-12T21:36:57.001Z,2.03
2023-05-12T21:39:27.953Z,2.30
2023-05-12T21:41:57.654Z,2.20
2023-05-12T21:44:27.158Z,2.30
2023-05-12T21:46:58.973Z,2.27
2023-05-12T21:49:28.739Z,2.20
2023-05-12T21:51:58.447Z,2.20
2023-05-12T21:54:29.588Z,2.20
2023-05-12T21:56:59.197Z,2.00
2023-05-12T21:59:29.553Z,2.00
2023-05-12T22:01:59.482Z,2.10
2023-05-12T22:04:29.204Z,2.30
2023-05-12T22:06:58.857Z,2.60
2023-05-12T22:09:31.220Z,2.40
2023-05-12T22:12:01.038Z,2.30
2023-05-12T22:14:30.644Z,2.30
2023-05-12T22:17:00.392Z,2.40
2023-05-12T22:19:30.470Z,2.60
2023-05-12T22:22:00.274Z,2.50
2023-05-12T22:24:31.429Z,3.00
2023-05-12T22:27:01.033Z,2.57
2023-05-12T22:29:30.956Z,2.80
2023-05-12T22:32:00.450Z,3.10
2023-05-12T22:34:29.960Z,3.10
2023-05-12T22:36:59.679Z,2.90
2023-05-12T22:39:30.799Z,3.00
2023-05-12T22:42:01.230Z,2.77
2023-05-12T22:44:31.458Z,2.90
2023-05-12T22:47:01.533Z,2.80
2023-05-12T22:49:31.291Z,2.60
2023-05-12T22:52:01.622Z,3.23
2023-05-12T22:54:32.543Z,3.10
2023-05-12T22:57:02.152Z,3.10
2023-05-12T22:59:31.760Z,3.10
2023-05-12T23:02:01.370Z,4.10
2023-05-12T23:04:31.078Z,4.20
2023-05-12T23:07:00.991Z,4.20
2023-05-12T23:09:32.028Z,4.07
2023-05-12T23:12:01.839Z,3.90
2023-05-12T23:14:31.548Z,3.80
2023-05-12T23:17:01.566Z,3.83
2023-05-12T23:19:31.486Z,3.47
2023-05-12T23:22:01.115Z,3.53
2023-05-12T23:24:32.128Z,3.90
2023-05-12T23:27:01.938Z,4.07
2023-05-12T23:29:31.438Z,3.83
2023-05-12T23:32:01.143Z,3.87
2023-05-12T23:34:31.371Z,4.20
2023-05-12T23:37:00.894Z,4.07
2023-05-12T23:39:32.029Z,4.20
2023-05-12T23:42:02.153Z,3.63
2023-05-12T23:44:32.369Z,4.20
2023-05-12T23:47:01.866Z,3.70
2023-05-12T23:49:31.479Z,3.77
2023-05-12T23:52:01.095Z,3.50
2023-05-12T23:54:32.030Z,4.00
2023-05-12T23:57:01.848Z,3.70
2023-05-12T23:59:31.555Z,3.77
